sensor_id;sensor_type;location;lat;lon;timestamp;P1;durP1;ratioP1;P2;durP2;ratioP2
3845;SDS011;1938;50.812;7.738;2022-10-22T00:01:42;14.13;;;7.17;;
3845;SDS011;1938;50.812;7.738;2022-10-22T00:04:08;10.67;;;6.60;;
3845;SDS011;1938;50.812;7.738;2022-10-22T00:06:34;11.53;;;6.20;;
3845;SDS011;1938;50.812;7.738;2022-10-22T00:08:59;17.17;;;7.10;;
3845;SDS011;1938;50.812;7.738;2022-10-22T00:11:26;13.57;;;7.70;;
3845;SDS011;1938;50.812;7.738;2022-10-22T00:13:51;12.60;;;6.23;;
3845;SDS011;1938;50.812;7.738;2022-10-22T00:16:17;12.43;;;6.83;;
3845;SDS011;1938;50.812;7.738;2022-10-22T00:18:43;13.60;;;6.40;;
3845;SDS011;1938;50.812;7.738;2022-10-22T00:21:08;16.30;;;8.13;;
3845;SDS011;1938;50.812;7.738;2022-10-22T00:23:34;16.50;;;8.63;;
3845;SDS011;1938;50.812;7.738;2022-10-22T00:26:00;13.40;;;8.20;;
3845;SDS011;1938;50.812;7.738;2022-10-22T00:28:25;14.17;;;8.40;;
3845;SDS011;1938;50.812;7.738;2022-10-22T00:30:57;15.00;;;7.63;;
3845;SDS011;1938;50.812;7.738;2022-10-22T00:33:24;16.20;;;7.67;;
3845;SDS011;1938;50.812;7.738;2022-10-22T00:35:50;10.90;;;7.37;;
3845;SDS011;1938;50.812;7.738;2022-10-22T00:38:16;15.60;;;7.80;;
3845;SDS011;1938;50.812;7.738;2022-10-22T00:40:41;14.90;;;8.20;;
3845;SDS011;1938;50.812;7.738;2022-10-22T00:43:14;12.03;;;8.17;;
3845;SDS011;1938;50.812;7.738;2022-10-22T00:45:43;17.30;;;6.97;;
3845;SDS011;1938;50.812;7.738;2022-10-22T00:48:09;13.27;;;7.13;;
3845;SDS011;1938;50.812;7.738;2022-10-22T00:50:58;12.73;;;6.70;;
3845;SDS011;1938;50.812;7.738;2022-10-22T00:53:29;13.80;;;6.67;;
3845;SDS011;1938;50.812;7.738;2022-10-22T00:55:59;12.20;;;6.73;;
3845;SDS011;1938;50.812;7.738;2022-10-22T00:58:25;16.27;;;7.57;;
3845;SDS011;1938;50.812;7.738;2022-10-22T01:00:53;18.90;;;8.07;;
3845;SDS011;1938;50.812;7.738;2022-10-22T01:03:20;12.63;;;8.40;;
3845;SDS011;1938;50.812;7.738;2022-10-22T01:05:49;15.53;;;8.20;;
3845;SDS011;1938;50.812;7.738;2022-10-22T01:11:16;15.60;;;7.70;;
3845;SDS011;1938;50.812;7.738;2022-10-22T01:13:53;11.40;;;7.53;;
3845;SDS011;1938;50.812;7.738;2022-10-22T01:19:21;12.13;;;7.10;;
3845;SDS011;1938;50.812;7.738;2022-10-22T01:22:18;12.07;;;6.73;;
3845;SDS011;1938;50.812;7.738;2022-10-22T01:24:52;16.30;;;8.70;;
3845;SDS011;1938;50.812;7.738;2022-10-22T01:30:10;12.30;;;7.23;;
3845;SDS011;1938;50.812;7.738;2022-10-22T01:32:40;33.97;;;8.00;;
3845;SDS011;1938;50.812;7.738;2022-10-22T01:35:13;16.07;;;7.70;;
3845;SDS011;1938;50.812;7.738;2022-10-22T01:37:48;25.13;;;10.40;;
3845;SDS011;1938;50.812;7.738;2022-10-22T01:40:16;13.57;;;8.77;;
3845;SDS011;1938;50.812;7.738;2022-10-22T01:43:00;16.27;;;8.40;;
3845;SDS011;1938;50.812;7.738;2022-10-22T01:45:29;17.50;;;9.10;;
3845;SDS011;1938;50.812;7.738;2022-10-22T01:50:46;18.33;;;8.93;;
3845;SDS011;1938;50.812;7.738;2022-10-22T01:53:18;15.73;;;8.10;;
3845;SDS011;1938;50.812;7.738;2022-10-22T02:01:16;17.73;;;8.10;;
3845;SDS011;1938;50.812;7.738;2022-10-22T02:03:51;25.90;;;9.20;;
3845;SDS011;1938;50.812;7.738;2022-10-22T02:06:24;14.50;;;8.43;;
3845;SDS011;1938;50.812;7.738;2022-10-22T02:08:51;13.70;;;8.50;;
3845;SDS011;1938;50.812;7.738;2022-10-22T02:11:18;17.37;;;9.60;;
3845;SDS011;1938;50.812;7.738;2022-10-22T02:13:46;18.00;;;9.30;;
3845;SDS011;1938;50.812;7.738;2022-10-22T02:16:20;17.57;;;10.63;;
3845;SDS011;1938;50.812;7.738;2022-10-22T02:18:51;20.77;;;10.77;;
3845;SDS011;1938;50.812;7.738;2022-10-22T02:21:19;20.33;;;9.57;;
3845;SDS011;1938;50.812;7.738;2022-10-22T02:23:45;16.80;;;10.00;;
3845;SDS011;1938;50.812;7.738;2022-10-22T02:26:15;19.80;;;10.60;;
3845;SDS011;1938;50.812;7.738;2022-10-22T02:28:55;20.53;;;10.77;;
3845;SDS011;1938;50.812;7.738;2022-10-22T02:31:27;16.63;;;10.13;;
3845;SDS011;1938;50.812;7.738;2022-10-22T02:33:56;19.07;;;10.17;;
3845;SDS011;1938;50.812;7.738;2022-10-22T02:36:28;17.77;;;10.40;;
3845;SDS011;1938;50.812;7.738;2022-10-22T02:38:54;15.23;;;9.50;;
3845;SDS011;1938;50.812;7.738;2022-10-22T02:41:21;16.30;;;8.77;;
3845;SDS011;1938;50.812;7.738;2022-10-22T02:43:49;15.20;;;10.00;;
3845;SDS011;1938;50.812;7.738;2022-10-22T02:46:17;24.93;;;8.50;;
3845;SDS011;1938;50.812;7.738;2022-10-22T02:48:43;19.63;;;9.70;;
3845;SDS011;1938;50.812;7.738;2022-10-22T02:51:08;18.53;;;10.40;;
3845;SDS011;1938;50.812;7.738;2022-10-22T02:53:35;17.67;;;9.90;;
3845;SDS011;1938;50.812;7.738;2022-10-22T02:56:01;20.70;;;9.10;;
3845;SDS011;1938;50.812;7.738;2022-10-22T02:58:26;16.27;;;9.50;;
3845;SDS011;1938;50.812;7.738;2022-10-22T03:00:52;15.83;;;8.50;;
3845;SDS011;1938;50.812;7.738;2022-10-22T03:03:18;15.73;;;9.10;;
3845;SDS011;1938;50.812;7.738;2022-10-22T03:05:43;15.03;;;9.40;;
3845;SDS011;1938;50.812;7.738;2022-10-22T03:08:09;18.50;;;9.10;;
3845;SDS011;1938;50.812;7.738;2022-10-22T03:10:35;21.70;;;8.80;;
3845;SDS011;1938;50.812;7.738;2022-10-22T03:13:00;24.37;;;10.30;;
3845;SDS011;1938;50.812;7.738;2022-10-22T03:15:27;15.30;;;9.20;;
3845;SDS011;1938;50.812;7.738;2022-10-22T03:17:53;17.30;;;8.50;;
3845;SDS011;1938;50.812;7.738;2022-10-22T03:20:18;20.13;;;9.87;;
3845;SDS011;1938;50.812;7.738;2022-10-22T03:22:44;17.80;;;9.33;;
3845;SDS011;1938;50.812;7.738;2022-10-22T03:25:11;13.93;;;10.03;;
3845;SDS011;1938;50.812;7.738;2022-10-22T03:27:40;20.60;;;9.87;;
3845;SDS011;1938;50.812;7.738;2022-10-22T03:30:07;27.17;;;10.00;;
3845;SDS011;1938;50.812;7.738;2022-10-22T03:32:33;17.10;;;9.40;;
3845;SDS011;1938;50.812;7.738;2022-10-22T03:34:58;20.10;;;9.90;;
3845;SDS011;1938;50.812;7.738;2022-10-22T03:37:24;15.60;;;9.10;;
3845;SDS011;1938;50.812;7.738;2022-10-22T03:39:51;17.70;;;8.90;;
3845;SDS011;1938;50.812;7.738;2022-10-22T03:42:18;17.20;;;9.27;;
3845;SDS011;1938;50.812;7.738;2022-10-22T03:44:44;13.33;;;8.97;;
3845;SDS011;1938;50.812;7.738;2022-10-22T03:47:09;12.17;;;8.33;;
3845;SDS011;1938;50.812;7.738;2022-10-22T03:49:35;10.90;;;7.30;;
3845;SDS011;1938;50.812;7.738;2022-10-22T03:52:04;10.13;;;6.67;;
3845;SDS011;1938;50.812;7.738;2022-10-22T03:54:34;11.57;;;6.93;;
3845;SDS011;1938;50.812;7.738;2022-10-22T03:57:01;10.60;;;6.70;;
3845;SDS011;1938;50.812;7.738;2022-10-22T03:59:27;12.53;;;5.80;;
3845;SDS011;1938;50.812;7.738;2022-10-22T04:01:52;8.90;;;5.07;;
3845;SDS011;1938;50.812;7.738;2022-10-22T04:04:18;7.57;;;5.20;;
3845;SDS011;1938;50.812;7.738;2022-10-22T04:06:43;8.53;;;5.23;;
3845;SDS011;1938;50.812;7.738;2022-10-22T04:09:09;12.33;;;6.77;;
3845;SDS011;1938;50.812;7.738;2022-10-22T04:11:34;10.33;;;5.47;;
3845;SDS011;1938;50.812;7.738;2022-10-22T04:14:00;8.00;;;4.63;;
3845;SDS011;1938;50.812;7.738;2022-10-22T04:16:25;10.60;;;5.70;;
3845;SDS011;1938;50.812;7.738;2022-10-22T04:18:55;9.57;;;5.47;;
3845;SDS011;1938;50.812;7.738;2022-10-22T04:21:21;7.70;;;5.03;;
3845;SDS011;1938;50.812;7.738;2022-10-22T04:23:47;8.70;;;5.20;;
3845;SDS011;1938;50.812;7.738;2022-10-22T04:26:14;13.77;;;5.47;;
3845;SDS011;1938;50.812;7.738;2022-10-22T04:28:41;7.70;;;4.80;;
3845;SDS011;1938;50.812;7.738;2022-10-22T04:31:12;7.43;;;4.60;;
3845;SDS011;1938;50.812;7.738;2022-10-22T04:33:39;19.87;;;5.50;;
3845;SDS011;1938;50.812;7.738;2022-10-22T04:36:12;11.40;;;6.73;;
3845;SDS011;1938;50.812;7.738;2022-10-22T04:38:42;14.73;;;4.97;;
3845;SDS011;1938;50.812;7.738;2022-10-22T04:41:10;10.50;;;5.00;;
3845;SDS011;1938;50.812;7.738;2022-10-22T04:43:36;9.30;;;4.80;;
3845;SDS011;1938;50.812;7.738;2022-10-22T04:46:02;15.77;;;4.80;;
3845;SDS011;1938;50.812;7.738;2022-10-22T04:48:28;9.43;;;3.97;;
3845;SDS011;1938;50.812;7.738;2022-10-22T04:50:55;8.67;;;4.90;;
3845;SDS011;1938;50.812;7.738;2022-10-22T04:53:22;7.37;;;4.37;;
3845;SDS011;1938;50.812;7.738;2022-10-22T04:55:47;9.53;;;4.40;;
3845;SDS011;1938;50.812;7.738;2022-10-22T04:58:13;10.13;;;4.83;;
3845;SDS011;1938;50.812;7.738;2022-10-22T05:00:39;9.40;;;4.63;;
3845;SDS011;1938;50.812;7.738;2022-10-22T05:03:05;11.37;;;5.00;;
3845;SDS011;1938;50.812;7.738;2022-10-22T05:05:31;8.13;;;4.80;;
3845;SDS011;1938;50.812;7.738;2022-10-22T05:07:56;8.90;;;5.20;;
3845;SDS011;1938;50.812;7.738;2022-10-22T05:10:22;12.63;;;5.40;;
3845;SDS011;1938;50.812;7.738;2022-10-22T05:12:48;8.13;;;4.20;;
3845;SDS011;1938;50.812;7.738;2022-10-22T05:15:13;7.93;;;4.30;;
3845;SDS011;1938;50.812;7.738;2022-10-22T05:17:39;12.60;;;4.13;;
3845;SDS011;1938;50.812;7.738;2022-10-22T05:20:05;10.70;;;4.50;;
3845;SDS011;1938;50.812;7.738;2022-10-22T05:22:32;7.90;;;4.33;;
3845;SDS011;1938;50.812;7.738;2022-10-22T05:24:58;10.67;;;4.63;;
3845;SDS011;1938;50.812;7.738;2022-10-22T05:27:24;9.77;;;5.10;;
3845;SDS011;1938;50.812;7.738;2022-10-22T05:29:50;9.10;;;5.13;;
3845;SDS011;1938;50.812;7.738;2022-10-22T05:32:16;14.00;;;6.00;;
3845;SDS011;1938;50.812;7.738;2022-10-22T05:34:42;13.00;;;6.30;;
3845;SDS011;1938;50.812;7.738;2022-10-22T05:37:07;18.40;;;6.60;;
3845;SDS011;1938;50.812;7.738;2022-10-22T05:39:33;10.57;;;5.90;;
3845;SDS011;1938;50.812;7.738;2022-10-22T05:42:01;9.37;;;6.00;;
3845;SDS011;1938;50.812;7.738;2022-10-22T05:44:27;16.93;;;6.97;;
3845;SDS011;1938;50.812;7.738;2022-10-22T05:46:53;20.47;;;7.37;;
3845;SDS011;1938;50.812;7.738;2022-10-22T05:49:19;11.53;;;6.90;;
3845;SDS011;1938;50.812;7.738;2022-10-22T05:51:44;13.33;;;6.80;;
3845;SDS011;1938;50.812;7.738;2022-10-22T05:54:14;16.30;;;8.17;;
3845;SDS011;1938;50.812;7.738;2022-10-22T05:56:43;11.33;;;5.97;;
3845;SDS011;1938;50.812;7.738;2022-10-22T05:59:09;16.93;;;7.53;;
3845;SDS011;1938;50.812;7.738;2022-10-22T06:01:35;12.70;;;6.77;;
3845;SDS011;1938;50.812;7.738;2022-10-22T06:04:01;14.13;;;7.30;;
3845;SDS011;1938;50.812;7.738;2022-10-22T06:06:45;11.70;;;7.30;;
3845;SDS011;1938;50.812;7.738;2022-10-22T06:11:52;16.03;;;7.73;;
3845;SDS011;1938;50.812;7.738;2022-10-22T06:14:18;14.93;;;7.10;;
3845;SDS011;1938;50.812;7.738;2022-10-22T06:16:45;21.90;;;8.17;;
3845;SDS011;1938;50.812;7.738;2022-10-22T06:19:11;12.80;;;8.10;;
3845;SDS011;1938;50.812;7.738;2022-10-22T06:21:37;18.57;;;8.27;;
3845;SDS011;1938;50.812;7.738;2022-10-22T06:24:04;17.20;;;7.10;;
3845;SDS011;1938;50.812;7.738;2022-10-22T06:26:30;16.63;;;6.80;;
3845;SDS011;1938;50.812;7.738;2022-10-22T06:28:56;16.87;;;7.27;;
3845;SDS011;1938;50.812;7.738;2022-10-22T06:31:22;16.13;;;7.93;;
3845;SDS011;1938;50.812;7.738;2022-10-22T06:33:48;14.97;;;7.50;;
3845;SDS011;1938;50.812;7.738;2022-10-22T06:36:15;19.87;;;7.10;;
3845;SDS011;1938;50.812;7.738;2022-10-22T06:38:42;15.87;;;8.37;;
3845;SDS011;1938;50.812;7.738;2022-10-22T06:41:13;12.40;;;6.73;;
3845;SDS011;1938;50.812;7.738;2022-10-22T06:43:41;16.10;;;7.13;;
3845;SDS011;1938;50.812;7.738;2022-10-22T06:46:14;15.13;;;8.33;;
3845;SDS011;1938;50.812;7.738;2022-10-22T06:48:41;12.43;;;6.23;;
3845;SDS011;1938;50.812;7.738;2022-10-22T06:51:13;15.43;;;6.13;;
3845;SDS011;1938;50.812;7.738;2022-10-22T06:53:39;14.43;;;7.00;;
3845;SDS011;1938;50.812;7.738;2022-10-22T06:56:05;15.30;;;7.10;;
3845;SDS011;1938;50.812;7.738;2022-10-22T06:58:33;10.57;;;6.93;;
3845;SDS011;1938;50.812;7.738;2022-10-22T07:01:00;14.67;;;7.73;;
3845;SDS011;1938;50.812;7.738;2022-10-22T07:03:28;19.60;;;6.17;;
3845;SDS011;1938;50.812;7.738;2022-10-22T07:05:53;13.60;;;6.23;;
3845;SDS011;1938;50.812;7.738;2022-10-22T07:08:19;10.27;;;5.50;;
3845;SDS011;1938;50.812;7.738;2022-10-22T07:10:46;11.23;;;6.47;;
3845;SDS011;1938;50.812;7.738;2022-10-22T07:13:11;13.50;;;5.77;;
3845;SDS011;1938;50.812;7.738;2022-10-22T07:15:37;16.43;;;5.63;;
3845;SDS011;1938;50.812;7.738;2022-10-22T07:18:02;9.00;;;5.60;;
3845;SDS011;1938;50.812;7.738;2022-10-22T07:20:29;11.43;;;5.00;;
3845;SDS011;1938;50.812;7.738;2022-10-22T07:22:55;9.77;;;4.80;;
3845;SDS011;1938;50.812;7.738;2022-10-22T07:25:20;12.13;;;4.77;;
3845;SDS011;1938;50.812;7.738;2022-10-22T07:27:46;9.37;;;5.20;;
3845;SDS011;1938;50.812;7.738;2022-10-22T07:30:13;11.50;;;4.67;;
3845;SDS011;1938;50.812;7.738;2022-10-22T07:32:38;16.17;;;5.93;;
3845;SDS011;1938;50.812;7.738;2022-10-22T07:35:04;11.43;;;6.03;;
3845;SDS011;1938;50.812;7.738;2022-10-22T07:37:30;11.57;;;4.27;;
3845;SDS011;1938;50.812;7.738;2022-10-22T07:39:55;14.13;;;5.50;;
3845;SDS011;1938;50.812;7.738;2022-10-22T07:42:22;10.03;;;5.00;;
3845;SDS011;1938;50.812;7.738;2022-10-22T07:44:47;14.03;;;5.30;;
3845;SDS011;1938;50.812;7.738;2022-10-22T07:47:13;13.10;;;4.33;;
3845;SDS011;1938;50.812;7.738;2022-10-22T07:49:38;10.73;;;4.03;;
3845;SDS011;1938;50.812;7.738;2022-10-22T07:52:05;10.33;;;5.07;;
3845;SDS011;1938;50.812;7.738;2022-10-22T07:54:31;7.77;;;3.83;;
3845;SDS011;1938;50.812;7.738;2022-10-22T07:56:57;13.93;;;4.07;;
3845;SDS011;1938;50.812;7.738;2022-10-22T07:59:24;12.50;;;4.50;;
3845;SDS011;1938;50.812;7.738;2022-10-22T08:01:49;12.13;;;5.20;;
3845;SDS011;1938;50.812;7.738;2022-10-22T08:04:15;12.77;;;4.00;;
3845;SDS011;1938;50.812;7.738;2022-10-22T08:06:40;8.07;;;3.97;;
3845;SDS011;1938;50.812;7.738;2022-10-22T08:09:06;8.27;;;3.37;;
3845;SDS011;1938;50.812;7.738;2022-10-22T08:11:32;9.40;;;3.00;;
3845;SDS011;1938;50.812;7.738;2022-10-22T08:13:58;9.77;;;3.13;;
3845;SDS011;1938;50.812;7.738;2022-10-22T08:16:24;9.20;;;3.43;;
3845;SDS011;1938;50.812;7.738;2022-10-22T08:18:50;6.07;;;3.20;;
3845;SDS011;1938;50.812;7.738;2022-10-22T08:21:15;14.43;;;2.83;;
3845;SDS011;1938;50.812;7.738;2022-10-22T08:23:41;4.90;;;2.43;;
3845;SDS011;1938;50.812;7.738;2022-10-22T08:26:09;11.37;;;3.10;;
3845;SDS011;1938;50.812;7.738;2022-10-22T08:28:35;16.13;;;3.93;;
3845;SDS011;1938;50.812;7.738;2022-10-22T08:31:07;6.00;;;2.30;;
3845;SDS011;1938;50.812;7.738;2022-10-22T08:33:33;5.97;;;2.67;;
3845;SDS011;1938;50.812;7.738;2022-10-22T08:35:58;15.23;;;2.70;;
3845;SDS011;1938;50.812;7.738;2022-10-22T08:38:24;5.60;;;2.30;;
3845;SDS011;1938;50.812;7.738;2022-10-22T08:41:03;7.33;;;2.57;;
3845;SDS011;1938;50.812;7.738;2022-10-22T08:49:33;5.53;;;2.60;;
3845;SDS011;1938;50.812;7.738;2022-10-22T08:52:02;10.90;;;2.50;;
3845;SDS011;1938;50.812;7.738;2022-10-22T08:59:36;7.40;;;2.20;;
3845;SDS011;1938;50.812;7.738;2022-10-22T09:02:08;11.13;;;2.50;;
3845;SDS011;1938;50.812;7.738;2022-10-22T09:04:48;5.17;;;2.23;;
3845;SDS011;1938;50.812;7.738;2022-10-22T09:07:20;9.20;;;3.53;;
3845;SDS011;1938;50.812;7.738;2022-10-22T09:09:46;14.23;;;2.80;;
3845;SDS011;1938;50.812;7.738;2022-10-22T09:12:16;10.23;;;2.87;;
3845;SDS011;1938;50.812;7.738;2022-10-22T09:14:42;6.70;;;2.50;;
3845;SDS011;1938;50.812;7.738;2022-10-22T09:17:11;12.73;;;2.50;;
3845;SDS011;1938;50.812;7.738;2022-10-22T09:19:40;8.17;;;2.17;;
3845;SDS011;1938;50.812;7.738;2022-10-22T09:24:57;9.20;;;2.73;;
3845;SDS011;1938;50.812;7.738;2022-10-22T09:27:33;6.80;;;2.20;;
3845;SDS011;1938;50.812;7.738;2022-10-22T09:29:59;7.60;;;2.13;;
3845;SDS011;1938;50.812;7.738;2022-10-22T09:32:26;5.10;;;1.97;;
3845;SDS011;1938;50.812;7.738;2022-10-22T09:34:54;19.20;;;2.70;;
3845;SDS011;1938;50.812;7.738;2022-10-22T09:37:24;12.40;;;2.60;;
3845;SDS011;1938;50.812;7.738;2022-10-22T09:39:53;9.13;;;2.07;;
3845;SDS011;1938;50.812;7.738;2022-10-22T09:42:20;8.87;;;2.30;;
3845;SDS011;1938;50.812;7.738;2022-10-22T09:44:51;16.27;;;2.33;;
3845;SDS011;1938;50.812;7.738;2022-10-22T09:50:17;13.43;;;2.60;;
3845;SDS011;1938;50.812;7.738;2022-10-22T09:52:53;5.30;;;2.40;;
3845;SDS011;1938;50.812;7.738;2022-10-22T09:55:38;10.87;;;2.97;;
3845;SDS011;1938;50.812;7.738;2022-10-22T09:58:04;5.27;;;2.13;;
3845;SDS011;1938;50.812;7.738;2022-10-22T10:00:37;7.57;;;2.17;;
3845;SDS011;1938;50.812;7.738;2022-10-22T10:03:03;11.30;;;2.20;;
3845;SDS011;1938;50.812;7.738;2022-10-22T10:05:30;7.73;;;2.00;;
3845;SDS011;1938;50.812;7.738;2022-10-22T10:07:57;8.13;;;2.00;;
3845;SDS011;1938;50.812;7.738;2022-10-22T10:10:32;5.40;;;1.57;;
3845;SDS011;1938;50.812;7.738;2022-10-22T10:13:17;14.60;;;2.70;;
3845;SDS011;1938;50.812;7.738;2022-10-22T10:19:01;20.77;;;2.47;;
3845;SDS011;1938;50.812;7.738;2022-10-22T10:24:21;7.80;;;1.60;;
3845;SDS011;1938;50.812;7.738;2022-10-22T10:26:53;15.97;;;2.80;;
3845;SDS011;1938;50.812;7.738;2022-10-22T10:29:34;7.77;;;2.67;;
3845;SDS011;1938;50.812;7.738;2022-10-22T10:36:18;7.60;;;2.47;;
3845;SDS011;1938;50.812;7.738;2022-10-22T10:41:12;10.33;;;2.90;;
3845;SDS011;1938;50.812;7.738;2022-10-22T10:49:09;6.50;;;2.10;;
3845;SDS011;1938;50.812;7.738;2022-10-22T10:54:14;7.03;;;2.27;;
3845;SDS011;1938;50.812;7.738;2022-10-22T11:00:02;6.50;;;2.63;;
3845;SDS011;1938;50.812;7.738;2022-10-22T11:07:33;5.83;;;2.37;;
3845;SDS011;1938;50.812;7.738;2022-10-22T11:10:09;8.27;;;2.50;;
3845;SDS011;1938;50.812;7.738;2022-10-22T11:12:41;13.50;;;2.57;;
3845;SDS011;1938;50.812;7.738;2022-10-22T11:15:21;9.57;;;2.20;;
3845;SDS011;1938;50.812;7.738;2022-10-22T11:17:54;10.93;;;1.90;;
3845;SDS011;1938;50.812;7.738;2022-10-22T11:23:16;10.00;;;1.90;;
3845;SDS011;1938;50.812;7.738;2022-10-22T11:29:16;9.27;;;2.40;;
3845;SDS011;1938;50.812;7.738;2022-10-22T11:31:49;10.30;;;2.27;;
3845;SDS011;1938;50.812;7.738;2022-10-22T11:34:17;7.30;;;2.50;;
3845;SDS011;1938;50.812;7.738;2022-10-22T11:36:47;9.50;;;2.20;;
3845;SDS011;1938;50.812;7.738;2022-10-22T11:42:20;10.20;;;1.80;;
3845;SDS011;1938;50.812;7.738;2022-10-22T12:00:52;8.90;;;1.80;;
3845;SDS011;1938;50.812;7.738;2022-10-22T12:19:28;4.80;;;1.60;;
3845;SDS011;1938;50.812;7.738;2022-10-22T12:22:14;7.93;;;2.40;;
3845;SDS011;1938;50.812;7.738;2022-10-22T12:24:45;4.47;;;2.00;;
3845;SDS011;1938;50.812;7.738;2022-10-22T12:27:27;7.50;;;1.90;;
3845;SDS011;1938;50.812;7.738;2022-10-22T12:30:19;6.13;;;2.40;;
3845;SDS011;1938;50.812;7.738;2022-10-22T12:32:50;13.30;;;4.53;;
3845;SDS011;1938;50.812;7.738;2022-10-22T12:35:19;5.37;;;1.60;;
3845;SDS011;1938;50.812;7.738;2022-10-22T12:37:48;9.57;;;2.63;;
3845;SDS011;1938;50.812;7.738;2022-10-22T12:40:20;4.70;;;1.30;;
3845;SDS011;1938;50.812;7.738;2022-10-22T12:42:51;6.63;;;2.20;;
3845;SDS011;1938;50.812;7.738;2022-10-22T12:45:29;3.30;;;1.40;;
3845;SDS011;1938;50.812;7.738;2022-10-22T12:47:57;4.30;;;2.03;;
3845;SDS011;1938;50.812;7.738;2022-10-22T12:50:32;15.37;;;2.40;;
3845;SDS011;1938;50.812;7.738;2022-10-22T12:53:03;13.60;;;2.40;;
3845;SDS011;1938;50.812;7.738;2022-10-22T12:55:30;5.73;;;1.33;;
3845;SDS011;1938;50.812;7.738;2022-10-22T12:57:56;22.37;;;1.80;;
3845;SDS011;1938;50.812;7.738;2022-10-22T13:00:26;5.97;;;1.20;;
3845;SDS011;1938;50.812;7.738;2022-10-22T13:02:56;5.87;;;1.13;;
3845;SDS011;1938;50.812;7.738;2022-10-22T13:05:25;4.83;;;1.50;;
3845;SDS011;1938;50.812;7.738;2022-10-22T13:08:02;4.73;;;1.20;;
3845;SDS011;1938;50.812;7.738;2022-10-22T13:10:34;3.63;;;1.30;;
3845;SDS011;1938;50.812;7.738;2022-10-22T13:13:02;5.20;;;1.53;;
3845;SDS011;1938;50.812;7.738;2022-10-22T13:20:48;5.30;;;1.30;;
3845;SDS011;1938;50.812;7.738;2022-10-22T13:23:18;5.90;;;1.10;;
3845;SDS011;1938;50.812;7.738;2022-10-22T13:25:55;7.57;;;1.70;;
3845;SDS011;1938;50.812;7.738;2022-10-22T13:28:23;16.80;;;1.67;;
3845;SDS011;1938;50.812;7.738;2022-10-22T13:31:14;6.57;;;1.30;;
3845;SDS011;1938;50.812;7.738;2022-10-22T13:33:49;4.90;;;1.23;;
3845;SDS011;1938;50.812;7.738;2022-10-22T13:36:17;11.77;;;2.17;;
3845;SDS011;1938;50.812;7.738;2022-10-22T13:38:43;5.80;;;1.40;;
3845;SDS011;1938;50.812;7.738;2022-10-22T13:41:25;5.33;;;1.60;;
3845;SDS011;1938;50.812;7.738;2022-10-22T13:43:52;8.13;;;2.00;;
3845;SDS011;1938;50.812;7.738;2022-10-22T13:46:19;4.93;;;1.70;;
3845;SDS011;1938;50.812;7.738;2022-10-22T13:48:46;6.00;;;1.30;;
3845;SDS011;1938;50.812;7.738;2022-10-22T13:51:15;5.90;;;1.47;;
3845;SDS011;1938;50.812;7.738;2022-10-22T13:53:44;5.67;;;1.20;;
3845;SDS011;1938;50.812;7.738;2022-10-22T13:56:12;3.43;;;1.13;;
3845;SDS011;1938;50.812;7.738;2022-10-22T13:58:39;4.33;;;1.40;;
3845;SDS011;1938;50.812;7.738;2022-10-22T14:01:08;9.10;;;2.13;;
3845;SDS011;1938;50.812;7.738;2022-10-22T14:03:42;15.63;;;2.07;;
3845;SDS011;1938;50.812;7.738;2022-10-22T14:06:12;4.63;;;1.43;;
3845;SDS011;1938;50.812;7.738;2022-10-22T14:08:39;5.53;;;1.40;;
3845;SDS011;1938;50.812;7.738;2022-10-22T14:11:05;5.40;;;1.20;;
3845;SDS011;1938;50.812;7.738;2022-10-22T14:13:32;5.50;;;1.40;;
3845;SDS011;1938;50.812;7.738;2022-10-22T14:15:58;6.43;;;2.10;;
3845;SDS011;1938;50.812;7.738;2022-10-22T14:18:24;5.17;;;1.40;;
3845;SDS011;1938;50.812;7.738;2022-10-22T14:20:54;4.23;;;1.40;;
3845;SDS011;1938;50.812;7.738;2022-10-22T14:23:21;7.83;;;1.30;;
3845;SDS011;1938;50.812;7.738;2022-10-22T14:25:49;5.23;;;1.30;;
3845;SDS011;1938;50.812;7.738;2022-10-22T14:28:17;9.10;;;1.50;;
3845;SDS011;1938;50.812;7.738;2022-10-22T14:30:43;7.70;;;1.57;;
3845;SDS011;1938;50.812;7.738;2022-10-22T14:33:14;15.03;;;1.90;;
3845;SDS011;1938;50.812;7.738;2022-10-22T14:35:51;6.17;;;1.50;;
3845;SDS011;1938;50.812;7.738;2022-10-22T14:38:16;8.50;;;2.30;;
3845;SDS011;1938;50.812;7.738;2022-10-22T14:40:45;5.97;;;1.37;;
3845;SDS011;1938;50.812;7.738;2022-10-22T14:43:24;8.80;;;2.40;;
3845;SDS011;1938;50.812;7.738;2022-10-22T14:45:51;7.10;;;1.30;;
3845;SDS011;1938;50.812;7.738;2022-10-22T14:48:17;5.50;;;1.47;;
3845;SDS011;1938;50.812;7.738;2022-10-22T14:50:43;7.17;;;1.63;;
3845;SDS011;1938;50.812;7.738;2022-10-22T14:53:10;10.10;;;1.70;;
3845;SDS011;1938;50.812;7.738;2022-10-22T14:55:37;8.90;;;1.43;;
3845;SDS011;1938;50.812;7.738;2022-10-22T14:58:03;6.47;;;1.50;;
3845;SDS011;1938;50.812;7.738;2022-10-22T15:00:29;4.70;;;1.73;;
3845;SDS011;1938;50.812;7.738;2022-10-22T15:02:55;12.03;;;1.30;;
3845;SDS011;1938;50.812;7.738;2022-10-22T15:05:21;5.07;;;1.40;;
3845;SDS011;1938;50.812;7.738;2022-10-22T15:07:46;10.73;;;1.63;;
3845;SDS011;1938;50.812;7.738;2022-10-22T15:10:12;10.77;;;2.37;;
3845;SDS011;1938;50.812;7.738;2022-10-22T15:12:38;6.50;;;1.77;;
3845;SDS011;1938;50.812;7.738;2022-10-22T15:15:04;6.07;;;1.70;;
3845;SDS011;1938;50.812;7.738;2022-10-22T15:17:30;6.70;;;1.90;;
3845;SDS011;1938;50.812;7.738;2022-10-22T15:19:55;6.43;;;2.00;;
3845;SDS011;1938;50.812;7.738;2022-10-22T15:22:24;8.83;;;1.80;;
3845;SDS011;1938;50.812;7.738;2022-10-22T15:24:50;9.60;;;1.40;;
3845;SDS011;1938;50.812;7.738;2022-10-22T15:27:17;6.27;;;1.70;;
3845;SDS011;1938;50.812;7.738;2022-10-22T15:29:43;5.70;;;1.83;;
3845;SDS011;1938;50.812;7.738;2022-10-22T15:32:09;6.57;;;1.70;;
3845;SDS011;1938;50.812;7.738;2022-10-22T15:34:35;4.60;;;1.67;;
3845;SDS011;1938;50.812;7.738;2022-10-22T15:37:03;5.90;;;1.43;;
3845;SDS011;1938;50.812;7.738;2022-10-22T15:39:31;5.23;;;1.33;;
3845;SDS011;1938;50.812;7.738;2022-10-22T15:41:57;7.80;;;1.73;;
3845;SDS011;1938;50.812;7.738;2022-10-22T15:44:28;8.80;;;1.80;;
3845;SDS011;1938;50.812;7.738;2022-10-22T15:46:55;6.23;;;1.50;;
3845;SDS011;1938;50.812;7.738;2022-10-22T15:49:24;5.67;;;1.53;;
3845;SDS011;1938;50.812;7.738;2022-10-22T15:51:51;7.73;;;1.43;;
3845;SDS011;1938;50.812;7.738;2022-10-22T15:54:20;9.77;;;1.73;;
3845;SDS011;1938;50.812;7.738;2022-10-22T15:56:48;9.93;;;1.50;;
3845;SDS011;1938;50.812;7.738;2022-10-22T15:59:15;7.63;;;1.97;;
3845;SDS011;1938;50.812;7.738;2022-10-22T16:01:41;5.97;;;1.73;;
3845;SDS011;1938;50.812;7.738;2022-10-22T16:04:07;5.60;;;1.37;;
3845;SDS011;1938;50.812;7.738;2022-10-22T16:06:43;10.43;;;1.50;;
3845;SDS011;1938;50.812;7.738;2022-10-22T16:09:12;8.20;;;2.07;;
3845;SDS011;1938;50.812;7.738;2022-10-22T16:11:39;7.47;;;1.93;;
3845;SDS011;1938;50.812;7.738;2022-10-22T16:14:05;7.40;;;1.73;;
3845;SDS011;1938;50.812;7.738;2022-10-22T16:16:33;7.40;;;1.67;;
3845;SDS011;1938;50.812;7.738;2022-10-22T16:19:00;5.90;;;1.57;;
3845;SDS011;1938;50.812;7.738;2022-10-22T16:21:26;10.50;;;3.90;;
3845;SDS011;1938;50.812;7.738;2022-10-22T16:23:52;6.37;;;1.90;;
3845;SDS011;1938;50.812;7.738;2022-10-22T16:26:18;12.40;;;2.40;;
3845;SDS011;1938;50.812;7.738;2022-10-22T16:28:44;4.10;;;1.30;;
3845;SDS011;1938;50.812;7.738;2022-10-22T16:31:12;6.43;;;2.60;;
3845;SDS011;1938;50.812;7.738;2022-10-22T16:33:40;7.77;;;1.90;;
3845;SDS011;1938;50.812;7.738;2022-10-22T16:36:07;10.43;;;2.80;;
3845;SDS011;1938;50.812;7.738;2022-10-22T16:38:34;13.80;;;3.57;;
3845;SDS011;1938;50.812;7.738;2022-10-22T16:41:10;8.20;;;2.90;;
3845;SDS011;1938;50.812;7.738;2022-10-22T16:43:38;11.63;;;2.40;;
3845;SDS011;1938;50.812;7.738;2022-10-22T16:46:04;7.80;;;2.20;;
3845;SDS011;1938;50.812;7.738;2022-10-22T16:48:31;7.07;;;1.93;;
3845;SDS011;1938;50.812;7.738;2022-10-22T16:50:57;6.33;;;2.63;;
3845;SDS011;1938;50.812;7.738;2022-10-22T16:53:23;7.37;;;2.10;;
3845;SDS011;1938;50.812;7.738;2022-10-22T16:55:48;9.77;;;1.80;;
3845;SDS011;1938;50.812;7.738;2022-10-22T16:58:14;5.60;;;1.63;;
3845;SDS011;1938;50.812;7.738;2022-10-22T17:00:39;3.97;;;1.77;;
3845;SDS011;1938;50.812;7.738;2022-10-22T17:03:05;7.40;;;2.00;;
3845;SDS011;1938;50.812;7.738;2022-10-22T17:05:34;17.83;;;2.63;;
3845;SDS011;1938;50.812;7.738;2022-10-22T17:08:00;6.17;;;2.37;;